sensor_id;sensor_type;location;lat;lon;timestamp;P1;durP1;ratioP1;P2;durP2;ratioP2
72864;SDS011;61000;48.120;11.548;2024-01-15T00:00:26;9.05;;;5.35;;
72864;SDS011;61000;48.120;11.548;2024-01-15T00:02:53;8.77;;;5.15;;
72864;SDS011;61000;48.120;11.548;2024-01-15T00:05:20;5.70;;;4.50;;
72864;SDS011;61000;48.120;11.548;2024-01-15T00:07:47;7.80;;;5.60;;
72864;SDS011;61000;48.120;11.548;2024-01-15T00:10:14;8.35;;;5.28;;
72864;SDS011;61000;48.120;11.548;2024-01-15T00:12:41;8.07;;;5.40;;
72864;SDS011;61000;48.120;11.548;2024-01-15T00:15:09;8.55;;;5.97;;
72864;SDS011;61000;48.120;11.548;2024-01-15T00:17:36;9.98;;;6.30;;
72864;SDS011;61000;48.120;11.548;2024-01-15T00:20:04;8.88;;;5.75;;
72864;SDS011;61000;48.120;11.548;2024-01-15T00:22:31;12.80;;;6.07;;
72864;SDS011;61000;48.120;11.548;2024-01-15T00:25:00;8.57;;;5.18;;
72864;SDS011;61000;48.120;11.548;2024-01-15T00:27:27;10.23;;;5.10;;
72864;SDS011;61000;48.120;11.548;2024-01-15T00:29:54;8.90;;;5.43;;
72864;SDS011;61000;48.120;11.548;2024-01-15T00:32:22;9.10;;;5.65;;
72864;SDS011;61000;48.120;11.548;2024-01-15T00:34:49;10.10;;;6.40;;
72864;SDS011;61000;48.120;11.548;2024-01-15T00:37:16;11.85;;;6.40;;
72864;SDS011;61000;48.120;11.548;2024-01-15T00:39:43;11.13;;;5.95;;
72864;SDS011;61000;48.120;11.548;2024-01-15T00:42:10;11.05;;;6.70;;
72864;SDS011;61000;48.120;11.548;2024-01-15T00:44:37;11.73;;;6.68;;
72864;SDS011;61000;48.120;11.548;2024-01-15T00:47:04;12.45;;;6.97;;
72864;SDS011;61000;48.120;11.548;2024-01-15T00:49:33;10.55;;;6.28;;
72864;SDS011;61000;48.120;11.548;2024-01-15T00:52:00;10.20;;;6.00;;
72864;SDS011;61000;48.120;11.548;2024-01-15T00:54:26;13.05;;;7.30;;
72864;SDS011;61000;48.120;11.548;2024-01-15T00:56:53;10.50;;;6.95;;
72864;SDS011;61000;48.120;11.548;2024-01-15T00:59:21;11.00;;;6.40;;
72864;SDS011;61000;48.120;11.548;2024-01-15T01:01:48;12.73;;;6.72;;
72864;SDS011;61000;48.120;11.548;2024-01-15T01:04:14;12.20;;;7.25;;
72864;SDS011;61000;48.120;11.548;2024-01-15T01:06:43;10.80;;;7.65;;
72864;SDS011;61000;48.120;11.548;2024-01-15T01:09:10;11.88;;;7.78;;
72864;SDS011;61000;48.120;11.548;2024-01-15T01:11:37;12.32;;;7.72;;
72864;SDS011;61000;48.120;11.548;2024-01-15T01:14:04;13.10;;;7.25;;
72864;SDS011;61000;48.120;11.548;2024-01-15T01:16:31;14.73;;;7.90;;
72864;SDS011;61000;48.120;11.548;2024-01-15T01:19:03;14.50;;;7.75;;
72864;SDS011;61000;48.120;11.548;2024-01-15T01:21:31;18.05;;;8.68;;
72864;SDS011;61000;48.120;11.548;2024-01-15T01:23:59;17.25;;;9.60;;
72864;SDS011;61000;48.120;11.548;2024-01-15T01:26:26;15.55;;;8.75;;
72864;SDS011;61000;48.120;11.548;2024-01-15T01:28:53;12.40;;;8.45;;
72864;SDS011;61000;48.120;11.548;2024-01-15T01:31:20;14.40;;;8.55;;
72864;SDS011;61000;48.120;11.548;2024-01-15T01:33:46;17.58;;;9.55;;
72864;SDS011;61000;48.120;11.548;2024-01-15T01:36:13;12.40;;;8.30;;
72864;SDS011;61000;48.120;11.548;2024-01-15T01:38:40;16.40;;;9.15;;
72864;SDS011;61000;48.120;11.548;2024-01-15T01:41:09;14.40;;;8.88;;
72864;SDS011;61000;48.120;11.548;2024-01-15T01:43:36;16.17;;;9.07;;
72864;SDS011;61000;48.120;11.548;2024-01-15T01:46:03;15.70;;;8.60;;
72864;SDS011;61000;48.120;11.548;2024-01-15T01:48:31;13.93;;;8.38;;
72864;SDS011;61000;48.120;11.548;2024-01-15T01:50:59;12.73;;;8.60;;
72864;SDS011;61000;48.120;11.548;2024-01-15T01:53:28;14.27;;;8.63;;
72864;SDS011;61000;48.120;11.548;2024-01-15T01:55:57;12.35;;;7.90;;
72864;SDS011;61000;48.120;11.548;2024-01-15T01:58:26;15.80;;;8.38;;
72864;SDS011;61000;48.120;11.548;2024-01-15T02:00:54;14.52;;;8.25;;
72864;SDS011;61000;48.120;11.548;2024-01-15T02:03:21;14.10;;;8.35;;
72864;SDS011;61000;48.120;11.548;2024-01-15T02:05:49;14.55;;;7.68;;
72864;SDS011;61000;48.120;11.548;2024-01-15T02:08:15;14.27;;;8.10;;
72864;SDS011;61000;48.120;11.548;2024-01-15T02:10:42;15.60;;;7.80;;
72864;SDS011;61000;48.120;11.548;2024-01-15T02:13:09;13.02;;;8.25;;
72864;SDS011;61000;48.120;11.548;2024-01-15T02:15:38;15.20;;;8.87;;
72864;SDS011;61000;48.120;11.548;2024-01-15T02:18:05;15.73;;;8.98;;
72864;SDS011;61000;48.120;11.548;2024-01-15T02:20:33;15.95;;;9.45;;
72864;SDS011;61000;48.120;11.548;2024-01-15T02:23:07;16.20;;;9.18;;
72864;SDS011;61000;48.120;11.548;2024-01-15T02:25:39;16.17;;;9.52;;
72864;SDS011;61000;48.120;11.548;2024-01-15T02:28:07;18.45;;;8.88;;
72864;SDS011;61000;48.120;11.548;2024-01-15T02:30:36;15.45;;;9.43;;
72864;SDS011;61000;48.120;11.548;2024-01-15T02:33:04;15.30;;;8.98;;
72864;SDS011;61000;48.120;11.548;2024-01-15T02:35:31;13.07;;;8.55;;
72864;SDS011;61000;48.120;11.548;2024-01-15T02:37:59;15.23;;;8.50;;
72864;SDS011;61000;48.120;11.548;2024-01-15T02:40:27;15.50;;;8.60;;
72864;SDS011;61000;48.120;11.548;2024-01-15T02:42:54;13.90;;;8.55;;
72864;SDS011;61000;48.120;11.548;2024-01-15T02:45:21;16.20;;;9.35;;
72864;SDS011;61000;48.120;11.548;2024-01-15T02:47:49;15.07;;;7.88;;
72864;SDS011;61000;48.120;11.548;2024-01-15T02:50:16;14.70;;;8.10;;
72864;SDS011;61000;48.120;11.548;2024-01-15T02:52:43;16.05;;;7.78;;
72864;SDS011;61000;48.120;11.548;2024-01-15T02:55:10;14.73;;;8.77;;
72864;SDS011;61000;48.120;11.548;2024-01-15T02:57:38;12.70;;;7.93;;
72864;SDS011;61000;48.120;11.548;2024-01-15T03:00:05;12.55;;;8.30;;
72864;SDS011;61000;48.120;11.548;2024-01-15T03:02:35;14.60;;;8.00;;
72864;SDS011;61000;48.120;11.548;2024-01-15T03:05:04;13.23;;;7.82;;
72864;SDS011;61000;48.120;11.548;2024-01-15T03:07:31;15.02;;;8.73;;
72864;SDS011;61000;48.120;11.548;2024-01-15T03:09:58;16.70;;;8.45;;
72864;SDS011;61000;48.120;11.548;2024-01-15T03:12:25;13.13;;;7.90;;
72864;SDS011;61000;48.120;11.548;2024-01-15T03:14:53;12.90;;;7.53;;
72864;SDS011;61000;48.120;11.548;2024-01-15T03:17:20;12.23;;;7.25;;
72864;SDS011;61000;48.120;11.548;2024-01-15T03:19:47;14.40;;;7.93;;
72864;SDS011;61000;48.120;11.548;2024-01-15T03:22:14;13.25;;;7.43;;
72864;SDS011;61000;48.120;11.548;2024-01-15T03:24:41;15.05;;;7.38;;
72864;SDS011;61000;48.120;11.548;2024-01-15T03:27:08;12.75;;;6.88;;
72864;SDS011;61000;48.120;11.548;2024-01-15T03:29:35;14.27;;;7.63;;
72864;SDS011;61000;48.120;11.548;2024-01-15T03:32:04;13.07;;;7.25;;
72864;SDS011;61000;48.120;11.548;2024-01-15T03:34:31;12.80;;;7.38;;
72864;SDS011;61000;48.120;11.548;2024-01-15T03:36:58;11.63;;;7.38;;
72864;SDS011;61000;48.120;11.548;2024-01-15T03:39:25;13.13;;;7.35;;
72864;SDS011;61000;48.120;11.548;2024-01-15T03:41:52;12.63;;;7.15;;
72864;SDS011;61000;48.120;11.548;2024-01-15T03:44:19;12.07;;;6.30;;
72864;SDS011;61000;48.120;11.548;2024-01-15T03:46:46;14.85;;;6.50;;
72864;SDS011;61000;48.120;11.548;2024-01-15T03:49:14;13.90;;;7.40;;
72864;SDS011;61000;48.120;11.548;2024-01-15T03:51:41;11.68;;;6.80;;
72864;SDS011;61000;48.120;11.548;2024-01-15T03:54:08;11.32;;;7.00;;
72864;SDS011;61000;48.120;11.548;2024-01-15T03:56:34;13.93;;;6.50;;
72864;SDS011;61000;48.120;11.548;2024-01-15T03:59:00;11.95;;;6.93;;
72864;SDS011;61000;48.120;11.548;2024-01-15T04:01:28;15.25;;;7.15;;
72864;SDS011;61000;48.120;11.548;2024-01-15T04:03:55;12.27;;;7.72;;
72864;SDS011;61000;48.120;11.548;2024-01-15T04:06:23;10.27;;;6.97;;
72864;SDS011;61000;48.120;11.548;2024-01-15T04:08:50;12.15;;;7.25;;
72864;SDS011;61000;48.120;11.548;2024-01-15T04:11:17;11.15;;;6.85;;
72864;SDS011;61000;48.120;11.548;2024-01-15T04:13:43;13.60;;;7.27;;
72864;SDS011;61000;48.120;11.548;2024-01-15T04:16:10;11.93;;;7.18;;
72864;SDS011;61000;48.120;11.548;2024-01-15T04:18:37;10.55;;;7.20;;
72864;SDS011;61000;48.120;11.548;2024-01-15T04:21:04;12.05;;;6.15;;
72864;SDS011;61000;48.120;11.548;2024-01-15T04:23:33;13.88;;;6.93;;
72864;SDS011;61000;48.120;11.548;2024-01-15T04:26:00;13.27;;;6.78;;
72864;SDS011;61000;48.120;11.548;2024-01-15T04:28:27;11.63;;;7.00;;
72864;SDS011;61000;48.120;11.548;2024-01-15T04:30:54;14.52;;;6.60;;
72864;SDS011;61000;48.120;11.548;2024-01-15T04:33:21;9.07;;;6.80;;
72864;SDS011;61000;48.120;11.548;2024-01-15T04:35:49;11.23;;;7.00;;
72864;SDS011;61000;48.120;11.548;2024-01-15T04:38:16;12.65;;;6.05;;
72864;SDS011;61000;48.120;11.548;2024-01-15T04:40:44;10.85;;;6.30;;
72864;SDS011;61000;48.120;11.548;2024-01-15T04:43:11;11.40;;;6.55;;
72864;SDS011;61000;48.120;11.548;2024-01-15T04:45:37;13.18;;;7.05;;
72864;SDS011;61000;48.120;11.548;2024-01-15T04:48:04;13.93;;;6.72;;
72864;SDS011;61000;48.120;11.548;2024-01-15T04:50:31;10.48;;;6.18;;
72864;SDS011;61000;48.120;11.548;2024-01-15T04:52:58;12.80;;;6.82;;
72864;SDS011;61000;48.120;11.548;2024-01-15T04:55:25;10.65;;;6.03;;
72864;SDS011;61000;48.120;11.548;2024-01-15T04:57:53;9.35;;;6.45;;
72864;SDS011;61000;48.120;11.548;2024-01-15T05:00:20;11.15;;;6.43;;
72864;SDS011;61000;48.120;11.548;2024-01-15T05:02:47;10.50;;;5.70;;
72864;SDS011;61000;48.120;11.548;2024-01-15T05:05:14;11.63;;;6.38;;
72864;SDS011;61000;48.120;11.548;2024-01-15T05:07:41;10.25;;;6.13;;
72864;SDS011;61000;48.120;11.548;2024-01-15T05:10:08;10.67;;;6.60;;
72864;SDS011;61000;48.120;11.548;2024-01-15T05:12:35;11.05;;;5.97;;
72864;SDS011;61000;48.120;11.548;2024-01-15T05:15:04;11.55;;;5.97;;
72864;SDS011;61000;48.120;11.548;2024-01-15T05:17:31;7.57;;;5.47;;
72864;SDS011;61000;48.120;11.548;2024-01-15T05:19:58;11.57;;;6.03;;
72864;SDS011;61000;48.120;11.548;2024-01-15T05:22:25;8.35;;;5.95;;
72864;SDS011;61000;48.120;11.548;2024-01-15T05:24:52;8.97;;;6.77;;
72864;SDS011;61000;48.120;11.548;2024-01-15T05:27:19;9.85;;;5.82;;
72864;SDS011;61000;48.120;11.548;2024-01-15T05:29:46;10.35;;;5.93;;
72864;SDS011;61000;48.120;11.548;2024-01-15T05:32:14;8.00;;;5.45;;
72864;SDS011;61000;48.120;11.548;2024-01-15T05:34:41;8.02;;;5.82;;
72864;SDS011;61000;48.120;11.548;2024-01-15T05:37:08;7.00;;;5.00;;
72864;SDS011;61000;48.120;11.548;2024-01-15T05:39:35;7.57;;;5.45;;
72864;SDS011;61000;48.120;11.548;2024-01-15T05:42:02;8.68;;;5.40;;
72864;SDS011;61000;48.120;11.548;2024-01-15T05:44:29;7.80;;;5.00;;
72864;SDS011;61000;48.120;11.548;2024-01-15T05:46:56;7.38;;;5.20;;
72864;SDS011;61000;48.120;11.548;2024-01-15T05:49:24;9.87;;;5.63;;
72864;SDS011;61000;48.120;11.548;2024-01-15T05:51:51;11.48;;;5.20;;
72864;SDS011;61000;48.120;11.548;2024-01-15T05:54:18;8.85;;;5.38;;
72864;SDS011;61000;48.120;11.548;2024-01-15T05:56:45;9.88;;;5.88;;
72864;SDS011;61000;48.120;11.548;2024-01-15T05:59:12;9.65;;;5.45;;
72864;SDS011;61000;48.120;11.548;2024-01-15T06:01:39;7.25;;;4.80;;
72864;SDS011;61000;48.120;11.548;2024-01-15T06:04:06;9.27;;;5.28;;
72864;SDS011;61000;48.120;11.548;2024-01-15T06:06:34;7.30;;;4.93;;
72864;SDS011;61000;48.120;11.548;2024-01-15T06:09:01;8.68;;;5.32;;
72864;SDS011;61000;48.120;11.548;2024-01-15T06:11:30;8.85;;;5.68;;
72864;SDS011;61000;48.120;11.548;2024-01-15T06:13:57;8.90;;;5.22;;
72864;SDS011;61000;48.120;11.548;2024-01-15T06:16:25;9.00;;;5.93;;
72864;SDS011;61000;48.120;11.548;2024-01-15T06:18:52;9.18;;;5.70;;
72864;SDS011;61000;48.120;11.548;2024-01-15T06:21:19;9.47;;;5.73;;
72864;SDS011;61000;48.120;11.548;2024-01-15T06:23:47;10.07;;;5.97;;
72864;SDS011;61000;48.120;11.548;2024-01-15T06:26:15;9.13;;;5.72;;
72864;SDS011;61000;48.120;11.548;2024-01-15T06:28:42;10.47;;;5.80;;
72864;SDS011;61000;48.120;11.548;2024-01-15T06:31:09;8.77;;;5.32;;
72864;SDS011;61000;48.120;11.548;2024-01-15T06:33:36;9.68;;;6.07;;
72864;SDS011;61000;48.120;11.548;2024-01-15T06:36:03;9.75;;;5.70;;
72864;SDS011;61000;48.120;11.548;2024-01-15T06:38:31;10.52;;;5.88;;
72864;SDS011;61000;48.120;11.548;2024-01-15T06:40:59;9.70;;;6.22;;
72864;SDS011;61000;48.120;11.548;2024-01-15T06:43:26;10.88;;;5.35;;
72864;SDS011;61000;48.120;11.548;2024-01-15T06:45:53;8.55;;;4.90;;
72864;SDS011;61000;48.120;11.548;2024-01-15T06:48:20;8.93;;;5.75;;
72864;SDS011;61000;48.120;11.548;2024-01-15T06:50:47;7.68;;;5.00;;
72864;SDS011;61000;48.120;11.548;2024-01-15T06:53:14;9.95;;;6.25;;
72864;SDS011;61000;48.120;11.548;2024-01-15T06:55:39;9.80;;;5.87;;
72864;SDS011;61000;48.120;11.548;2024-01-15T06:58:08;9.05;;;5.60;;
72864;SDS011;61000;48.120;11.548;2024-01-15T07:00:35;9.75;;;6.20;;
72864;SDS011;61000;48.120;11.548;2024-01-15T07:03:03;10.85;;;6.05;;
72864;SDS011;61000;48.120;11.548;2024-01-15T07:05:30;8.30;;;5.80;;
72864;SDS011;61000;48.120;11.548;2024-01-15T07:07:57;7.78;;;5.53;;
72864;SDS011;61000;48.120;11.548;2024-01-15T07:10:24;10.07;;;6.03;;
72864;SDS011;61000;48.120;11.548;2024-01-15T07:12:51;10.05;;;6.05;;
72864;SDS011;61000;48.120;11.548;2024-01-15T07:15:20;9.98;;;5.97;;
72864;SDS011;61000;48.120;11.548;2024-01-15T07:17:47;10.32;;;6.30;;
72864;SDS011;61000;48.120;11.548;2024-01-15T07:20:14;18.23;;;5.70;;
72864;SDS011;61000;48.120;11.548;2024-01-15T07:22:41;8.98;;;5.80;;
72864;SDS011;61000;48.120;11.548;2024-01-15T07:25:08;9.57;;;5.70;;
72864;SDS011;61000;48.120;11.548;2024-01-15T07:27:34;9.18;;;5.70;;
72864;SDS011;61000;48.120;11.548;2024-01-15T07:30:01;10.57;;;6.38;;
72864;SDS011;61000;48.120;11.548;2024-01-15T07:32:31;10.75;;;6.20;;
72864;SDS011;61000;48.120;11.548;2024-01-15T07:34:59;9.55;;;6.20;;
72864;SDS011;61000;48.120;11.548;2024-01-15T07:37:26;9.45;;;5.30;;
72864;SDS011;61000;48.120;11.548;2024-01-15T07:39:55;10.55;;;6.22;;
72864;SDS011;61000;48.120;11.548;2024-01-15T07:42:22;14.05;;;6.45;;
72864;SDS011;61000;48.120;11.548;2024-01-15T07:44:49;12.10;;;6.70;;
72864;SDS011;61000;48.120;11.548;2024-01-15T07:47:16;9.75;;;6.07;;
72864;SDS011;61000;48.120;11.548;2024-01-15T07:49:45;12.43;;;7.07;;
72864;SDS011;61000;48.120;11.548;2024-01-15T07:52:12;11.20;;;6.43;;
72864;SDS011;61000;48.120;11.548;2024-01-15T07:54:38;11.15;;;6.18;;
72864;SDS011;61000;48.120;11.548;2024-01-15T07:57:06;10.35;;;5.68;;
72864;SDS011;61000;48.120;11.548;2024-01-15T07:59:32;10.05;;;6.60;;
72864;SDS011;61000;48.120;11.548;2024-01-15T08:02:01;10.95;;;6.22;;
72864;SDS011;61000;48.120;11.548;2024-01-15T08:04:28;10.13;;;5.90;;
72864;SDS011;61000;48.120;11.548;2024-01-15T08:06:56;13.40;;;6.50;;
72864;SDS011;61000;48.120;11.548;2024-01-15T08:09:23;10.45;;;5.60;;
72864;SDS011;61000;48.120;11.548;2024-01-15T08:11:50;9.48;;;5.88;;
72864;SDS011;61000;48.120;11.548;2024-01-15T08:14:17;9.65;;;5.85;;
72864;SDS011;61000;48.120;11.548;2024-01-15T08:16:44;9.23;;;6.03;;
72864;SDS011;61000;48.120;11.548;2024-01-15T08:19:11;9.95;;;5.78;;
72864;SDS011;61000;48.120;11.548;2024-01-15T08:21:39;13.48;;;5.72;;
72864;SDS011;61000;48.120;11.548;2024-01-15T08:24:07;11.48;;;6.38;;
72864;SDS011;61000;48.120;11.548;2024-01-15T08:26:35;9.43;;;6.10;;
72864;SDS011;61000;48.120;11.548;2024-01-15T08:29:02;8.95;;;5.28;;
72864;SDS011;61000;48.120;11.548;2024-01-15T08:31:29;9.60;;;5.32;;
72864;SDS011;61000;48.120;11.548;2024-01-15T08:33:56;11.30;;;6.00;;
72864;SDS011;61000;48.120;11.548;2024-01-15T08:36:22;9.68;;;5.90;;
72864;SDS011;61000;48.120;11.548;2024-01-15T08:38:50;8.27;;;5.38;;
72864;SDS011;61000;48.120;11.548;2024-01-15T08:41:18;10.23;;;5.47;;
72864;SDS011;61000;48.120;11.548;2024-01-15T08:43:45;9.18;;;6.07;;
72864;SDS011;61000;48.120;11.548;2024-01-15T08:46:12;11.35;;;6.05;;
72864;SDS011;61000;48.120;11.548;2024-01-15T08:48:39;9.00;;;5.78;;
72864;SDS011;61000;48.120;11.548;2024-01-15T08:51:06;9.70;;;5.55;;
72864;SDS011;61000;48.120;11.548;2024-01-15T08:53:33;8.52;;;5.82;;
72864;SDS011;61000;48.120;11.548;2024-01-15T08:56:00;11.10;;;7.18;;
72864;SDS011;61000;48.120;11.548;2024-01-15T08:58:28;11.35;;;5.45;;
72864;SDS011;61000;48.120;11.548;2024-01-15T09:00:55;10.20;;;5.75;;
72864;SDS011;61000;48.120;11.548;2024-01-15T09:03:22;9.13;;;5.75;;
72864;SDS011;61000;48.120;11.548;2024-01-15T09:05:48;10.32;;;5.97;;
72864;SDS011;61000;48.120;11.548;2024-01-15T09:08:16;10.68;;;6.28;;
72864;SDS011;61000;48.120;11.548;2024-01-15T09:10:43;12.63;;;6.22;;
72864;SDS011;61000;48.120;11.548;2024-01-15T09:13:11;16.58;;;6.47;;
72864;SDS011;61000;48.120;11.548;2024-01-15T09:15:39;12.05;;;6.60;;
72864;SDS011;61000;48.120;11.548;2024-01-15T09:18:06;12.65;;;7.25;;
72864;SDS011;61000;48.120;11.548;2024-01-15T09:20:33;8.55;;;5.80;;
72864;SDS011;61000;48.120;11.548;2024-01-15T09:23:00;12.35;;;5.88;;
72864;SDS011;61000;48.120;11.548;2024-01-15T09:25:27;11.02;;;6.40;;
72864;SDS011;61000;48.120;11.548;2024-01-15T09:27:54;11.68;;;6.38;;
72864;SDS011;61000;48.120;11.548;2024-01-15T09:30:21;8.43;;;5.88;;
72864;SDS011;61000;48.120;11.548;2024-01-15T09:32:49;11.07;;;6.63;;
72864;SDS011;61000;48.120;11.548;2024-01-15T09:35:16;14.43;;;7.07;;
72864;SDS011;61000;48.120;11.548;2024-01-15T09:37:43;13.63;;;7.03;;
72864;SDS011;61000;48.120;11.548;2024-01-15T09:40:12;9.18;;;5.70;;
72864;SDS011;61000;48.120;11.548;2024-01-15T09:42:40;11.73;;;5.88;;
72864;SDS011;61000;48.120;11.548;2024-01-15T09:45:07;10.02;;;5.90;;
72864;SDS011;61000;48.120;11.548;2024-01-15T09:47:35;9.80;;;5.63;;
72864;SDS011;61000;48.120;11.548;2024-01-15T09:50:05;8.82;;;5.15;;
72864;SDS011;61000;48.120;11.548;2024-01-15T09:52:32;9.80;;;6.03;;
72864;SDS011;61000;48.120;11.548;2024-01-15T09:55:02;8.80;;;5.93;;
72864;SDS011;61000;48.120;11.548;2024-01-15T09:57:30;8.10;;;4.63;;
72864;SDS011;61000;48.120;11.548;2024-01-15T09:59:58;9.27;;;5.65;;
72864;SDS011;61000;48.120;11.548;2024-01-15T10:02:29;15.73;;;5.13;;
72864;SDS011;61000;48.120;11.548;2024-01-15T10:04:57;6.78;;;4.80;;
72864;SDS011;61000;48.120;11.548;2024-01-15T10:07:25;7.20;;;4.30;;
72864;SDS011;61000;48.120;11.548;2024-01-15T10:09:53;5.97;;;4.47;;
72864;SDS011;61000;48.120;11.548;2024-01-15T10:12:21;7.35;;;5.18;;
72864;SDS011;61000;48.120;11.548;2024-01-15T10:14:48;7.57;;;4.82;;
72864;SDS011;61000;48.120;11.548;2024-01-15T10:17:16;6.28;;;4.60;;
72864;SDS011;61000;48.120;11.548;2024-01-15T10:19:44;5.45;;;3.72;;
72864;SDS011;61000;48.120;11.548;2024-01-15T10:22:12;6.88;;;4.28;;
72864;SDS011;61000;48.120;11.548;2024-01-15T10:24:41;5.97;;;4.18;;
72864;SDS011;61000;48.120;11.548;2024-01-15T10:27:08;5.95;;;4.00;;
72864;SDS011;61000;48.120;11.548;2024-01-15T10:29:36;7.65;;;4.18;;
72864;SDS011;61000;48.120;11.548;2024-01-15T10:32:05;5.95;;;4.40;;
72864;SDS011;61000;48.120;11.548;2024-01-15T10:34:33;6.93;;;3.97;;
72864;SDS011;61000;48.120;11.548;2024-01-15T10:37:03;8.95;;;4.82;;
72864;SDS011;61000;48.120;11.548;2024-01-15T10:39:30;8.13;;;4.10;;
72864;SDS011;61000;48.120;11.548;2024-01-15T10:41:59;6.03;;;4.45;;
72864;SDS011;61000;48.120;11.548;2024-01-15T10:44:26;5.38;;;4.32;;
72864;SDS011;61000;48.120;11.548;2024-01-15T10:46:54;9.60;;;4.70;;
72864;SDS011;61000;48.120;11.548;2024-01-15T10:49:22;5.75;;;3.88;;
72864;SDS011;61000;48.120;11.548;2024-01-15T10:51:51;5.90;;;3.97;;
72864;SDS011;61000;48.120;11.548;2024-01-15T10:54:19;5.28;;;4.15;;
72864;SDS011;61000;48.120;11.548;2024-01-15T10:56:48;7.75;;;4.90;;
72864;SDS011;61000;48.120;11.548;2024-01-15T10:59:17;6.43;;;3.90;;
72864;SDS011;61000;48.120;11.548;2024-01-15T11:01:46;8.20;;;4.60;;
72864;SDS011;61000;48.120;11.548;2024-01-15T11:04:14;9.25;;;4.35;;
72864;SDS011;61000;48.120;11.548;2024-01-15T11:06:43;6.50;;;4.57;;
72864;SDS011;61000;48.120;11.548;2024-01-15T11:09:11;9.60;;;4.90;;
72864;SDS011;61000;48.120;11.548;2024-01-15T11:11:40;13.68;;;6.40;;
72864;SDS011;61000;48.120;11.548;2024-01-15T11:14:09;8.63;;;4.70;;
72864;SDS011;61000;48.120;11.548;2024-01-15T11:16:57;8.82;;;5.75;;
72864;SDS011;61000;48.120;11.548;2024-01-15T11:19:25;7.10;;;4.45;;
72864;SDS011;61000;48.120;11.548;2024-01-15T11:21:51;9.10;;;5.63;;
72864;SDS011;61000;48.120;11.548;2024-01-15T11:24:38;7.82;;;4.53;;
72864;SDS011;61000;48.120;11.548;2024-01-15T11:27:08;5.50;;;4.18;;
72864;SDS011;61000;48.120;11.548;2024-01-15T11:29:35;7.47;;;4.43;;
72864;SDS011;61000;48.120;11.548;2024-01-15T11:32:05;4.88;;;3.75;;
72864;SDS011;61000;48.120;11.548;2024-01-15T11:37:20;5.70;;;4.03;;
72864;SDS011;61000;48.120;11.548;2024-01-15T11:39:50;6.38;;;4.50;;
72864;SDS011;61000;48.120;11.548;2024-01-15T11:42:19;4.07;;;3.67;;
72864;SDS011;61000;48.120;11.548;2024-01-15T11:44:47;6.13;;;4.03;;
72864;SDS011;61000;48.120;11.548;2024-01-15T11:47:16;5.38;;;3.88;;
72864;SDS011;61000;48.120;11.548;2024-01-15T11:50:02;4.40;;;3.85;;
72864;SDS011;61000;48.120;11.548;2024-01-15T11:52:34;7.82;;;4.25;;
72864;SDS011;61000;48.120;11.548;2024-01-15T11:55:07;4.85;;;3.50;;
72864;SDS011;61000;48.120;11.548;2024-01-15T11:57:43;4.43;;;3.55;;
72864;SDS011;61000;48.120;11.548;2024-01-15T12:00:13;6.38;;;4.07;;
72864;SDS011;61000;48.120;11.548;2024-01-15T12:02:42;4.93;;;3.90;;
72864;SDS011;61000;48.120;11.548;2024-01-15T12:05:10;4.75;;;3.85;;
72864;SDS011;61000;48.120;11.548;2024-01-15T12:07:38;5.72;;;3.83;;
72864;SDS011;61000;48.120;11.548;2024-01-15T12:10:08;5.00;;;3.83;;
72864;SDS011;61000;48.120;11.548;2024-01-15T12:12:43;5.18;;;4.35;;
72864;SDS011;61000;48.120;11.548;2024-01-15T12:15:23;5.28;;;4.05;;
72864;SDS011;61000;48.120;11.548;2024-01-15T12:17:52;7.28;;;4.10;;
72864;SDS011;61000;48.120;11.548;2024-01-15T12:20:20;4.40;;;3.67;;
72864;SDS011;61000;48.120;11.548;2024-01-15T12:22:47;4.95;;;3.58;;
72864;SDS011;61000;48.120;11.548;2024-01-15T12:25:14;6.15;;;3.55;;
72864;SDS011;61000;48.120;11.548;2024-01-15T12:27:41;4.93;;;3.40;;
72864;SDS011;61000;48.120;11.548;2024-01-15T12:30:10;6.15;;;3.97;;
72864;SDS011;61000;48.120;11.548;2024-01-15T12:32:38;4.47;;;3.70;;
72864;SDS011;61000;48.120;11.548;2024-01-15T12:35:07;5.55;;;3.58;;
72864;SDS011;61000;48.120;11.548;2024-01-15T12:37:35;5.05;;;3.50;;
72864;SDS011;61000;48.120;11.548;2024-01-15T12:40:02;4.63;;;3.65;;
72864;SDS011;61000;48.120;11.548;2024-01-15T12:42:29;3.63;;;2.83;;
72864;SDS011;61000;48.120;11.548;2024-01-15T12:44:56;4.35;;;3.20;;
72864;SDS011;61000;48.120;11.548;2024-01-15T12:47:23;3.42;;;3.05;;
72864;SDS011;61000;48.120;11.548;2024-01-15T12:49:51;4.28;;;3.45;;
72864;SDS011;61000;48.120;11.548;2024-01-15T12:52:21;3.78;;;3.00;;
72864;SDS011;61000;48.120;11.548;2024-01-15T12:54:48;3.47;;;3.05;;
72864;SDS011;61000;48.120;11.548;2024-01-15T12:57:15;5.07;;;3.30;;
72864;SDS011;61000;48.120;11.548;2024-01-15T12:59:42;3.65;;;3.28;;
72864;SDS011;61000;48.120;11.548;2024-01-15T13:02:10;3.97;;;3.00;;
72864;SDS011;61000;48.120;11.548;2024-01-15T13:04:38;4.13;;;3.50;;
72864;SDS011;61000;48.120;11.548;2024-01-15T13:07:05;5.43;;;3.30;;
72864;SDS011;61000;48.120;11.548;2024-01-15T13:09:33;3.72;;;3.33;;
72864;SDS011;61000;48.120;11.548;2024-01-15T13:12:01;3.88;;;3.38;;
72864;SDS011;61000;48.120;11.548;2024-01-15T13:14:28;4.22;;;3.45;;
72864;SDS011;61000;48.120;11.548;2024-01-15T13:16:55;5.32;;;3.42;;
72864;SDS011;61000;48.120;11.548;2024-01-15T13:19:23;4.80;;;3.60;;
72864;SDS011;61000;48.120;11.548;2024-01-15T13:21:50;4.28;;;3.30;;
72864;SDS011;61000;48.120;11.548;2024-01-15T13:24:18;5.00;;;3.15;;
72864;SDS011;61000;48.120;11.548;2024-01-15T13:26:46;4.47;;;3.20;;
72864;SDS011;61000;48.120;11.548;2024-01-15T13:29:13;5.90;;;3.63;;
72864;SDS011;61000;48.120;11.548;2024-01-15T13:31:40;5.32;;;3.83;;
72864;SDS011;61000;48.120;11.548;2024-01-15T13:34:07;4.78;;;3.28;;
72864;SDS011;61000;48.120;11.548;2024-01-15T13:36:35;8.55;;;3.42;;
72864;SDS011;61000;48.120;11.548;2024-01-15T13:39:04;7.25;;;4.50;;
72864;SDS011;61000;48.120;11.548;2024-01-15T13:41:34;5.13;;;3.88;;
72864;SDS011;61000;48.120;11.548;2024-01-15T13:44:02;6.28;;;3.80;;
72864;SDS011;61000;48.120;11.548;2024-01-15T13:46:29;6.10;;;4.05;;
72864;SDS011;61000;48.120;11.548;2024-01-15T13:48:56;7.15;;;4.50;;
72864;SDS011;61000;48.120;11.548;2024-01-15T13:51:23;5.45;;;3.75;;
72864;SDS011;61000;48.120;11.548;2024-01-15T13:53:50;6.65;;;4.40;;
72864;SDS011;61000;48.120;11.548;2024-01-15T13:56:20;5.03;;;3.70;;
72864;SDS011;61000;48.120;11.548;2024-01-15T13:58:46;5.90;;;4.05;;
72864;SDS011;61000;48.120;11.548;2024-01-15T14:01:16;4.72;;;3.70;;
72864;SDS011;61000;48.120;11.548;2024-01-15T14:03:43;6.35;;;3.78;;
72864;SDS011;61000;48.120;11.548;2024-01-15T14:06:10;5.00;;;4.03;;
72864;SDS011;61000;48.120;11.548;2024-01-15T14:08:37;6.13;;;4.07;;
72864;SDS011;61000;48.120;11.548;2024-01-15T14:11:04;5.57;;;4.25;;
72864;SDS011;61000;48.120;11.548;2024-01-15T14:13:32;6.20;;;4.43;;
72864;SDS011;61000;48.120;11.548;2024-01-15T14:15:59;5.57;;;4.30;;
72864;SDS011;61000;48.120;11.548;2024-01-15T14:18:27;7.80;;;4.28;;
72864;SDS011;61000;48.120;11.548;2024-01-15T14:20:54;5.60;;;3.72;;
72864;SDS011;61000;48.120;11.548;2024-01-15T14:23:21;5.38;;;3.92;;
72864;SDS011;61000;48.120;11.548;2024-01-15T14:25:48;6.80;;;4.88;;
72864;SDS011;61000;48.120;11.548;2024-01-15T14:28:15;4.55;;;3.85;;
72864;SDS011;61000;48.120;11.548;2024-01-15T14:30:42;5.72;;;3.97;;
72864;SDS011;61000;48.120;11.548;2024-01-15T14:33:09;7.90;;;4.60;;